This is the latest recevied weather packets stored in our database for station/object 9M4GEK-3. If no packets are shown the sender has not sent any weather packets the latest 10 day(s).
| Time | Temp. | Humidity | Pressure | Rain* | Wind** | Luminosity | Snow |
|---|---|---|---|---|---|---|---|
| 1778163657 | 30° C | 66% | 1007.4 hPa | - | - | - | - |
| 1778163513 | 30° C | 66% | 1007.5 hPa | - | - | - | - |
| 1778162756 | 30° C | 66% | 1007.5 hPa | - | - | - | - |
| 1778162677 | 30° C | 66% | 1007.4 hPa | - | - | - | - |
| 1778161856 | 30° C | 66% | 1007.4 hPa | - | - | - | - |
| 1778161664 | 30.56° C | 66% | 1007.3 hPa | - | - | - | - |
| 1778160963 | 30.56° C | 66% | 1007.3 hPa | - | - | - | - |
| 1778160056 | 30.56° C | 67% | 1006.9 hPa | - | - | - | - |
| 1778159478 | 30° C | 66% | 1006.6 hPa | - | - | - | - |
| 1778159157 | 30° C | 66% | 1006.6 hPa | - | - | - | - |
| 1778158965 | 30.56° C | 66% | 1006.1 hPa | - | - | - | - |
| 1778158257 | 30.56° C | 66% | 1006.1 hPa | - | - | - | - |
| 1778157358 | 30.56° C | 66% | 1005.8 hPa | - | - | - | - |
| 1778157036 | 30° C | 66% | 1005.8 hPa | - | - | - | - |
| 1778156136 | 30° C | 65% | 1005.4 hPa | - | - | - | - |
| 1778155236 | 30.56° C | 65% | 1005.2 hPa | - | - | - | - |
| 1778154336 | 30° C | 66% | 1005.1 hPa | - | - | - | - |
| 1778153436 | 30° C | 66% | 1004.5 hPa | - | - | - | - |
| 1778152535 | 30.56° C | 64% | 1004.3 hPa | - | - | - | - |
| 1778151682 | 30.56° C | 62% | 1003.6 hPa | - | - | - | - |
| 1778151634 | 30.56° C | 63% | 1003.7 hPa | - | - | - | - |
| 1778151158 | 32.22° C | 56% | 1003.7 hPa | - | - | - | - |
| 1778150733 | 30.56° C | 62% | 1003.6 hPa | - | - | - | - |
| 1778149833 | 32.22° C | 56% | 1003.7 hPa | - | - | - | - |
| 1778148934 | 33.33° C | 52% | 1003.5 hPa | - | - | - | - |
* Rain since midnight (hover to see other rain measurements)
** Current wind speed in m/s (hover to see current wind gust speed)